createdAt,value
2022-10-23T00:03:42.466Z,20.65
2022-10-23T00:07:44.172Z,17.63
2022-10-23T00:11:44.360Z,22.73
2022-10-23T00:15:44.195Z,22.92
2022-10-23T00:19:43.826Z,16.80
2022-10-23T00:23:46.004Z,17.92
2022-10-23T00:27:45.618Z,18.42
2022-10-23T00:31:45.776Z,20.75
2022-10-23T00:35:46.204Z,17.83
2022-10-23T00:39:47.990Z,19.67
2022-10-23T00:44:04.968Z,19.55
2022-10-23T00:48:06.047Z,14.38
2022-10-23T00:52:09.855Z,15.00
2022-10-23T00:56:12.146Z,18.33
2022-10-23T01:00:17.262Z,16.60
2022-10-23T01:04:17.022Z,17.35
2022-10-23T01:08:24.046Z,13.48
2022-10-23T01:12:30.959Z,19.35
2022-10-23T01:16:39.659Z,20.98
2022-10-23T01:20:45.187Z,11.63
2022-10-23T01:24:53.052Z,19.45
2022-10-23T01:29:00.659Z,18.63
2022-10-23T01:33:06.538Z,14.13
2022-10-23T01:37:13.799Z,17.80
2022-10-23T01:41:18.214Z,15.93
2022-10-23T01:45:27.433Z,19.17
2022-10-23T01:53:30.343Z,18.70
2022-10-23T01:57:33.497Z,17.40
2022-10-23T02:01:36.900Z,15.98
2022-10-23T02:05:39.031Z,19.65
2022-10-23T02:09:38.680Z,16.10
2022-10-23T02:13:44.913Z,19.42
2022-10-23T02:17:53.164Z,16.60
2022-10-23T02:21:57.644Z,22.60
2022-10-23T02:26:01.495Z,17.42
2022-10-23T02:30:06.445Z,16.05
2022-10-23T02:34:09.632Z,17.27
2022-10-23T02:38:34.768Z,23.75
2022-10-23T02:42:38.966Z,18.17
2022-10-23T02:46:52.011Z,16.38
2022-10-23T02:51:02.137Z,15.18
2022-10-23T02:55:12.479Z,17.95
2022-10-23T02:59:24.366Z,19.27
2022-10-23T03:03:30.309Z,13.20
2022-10-23T03:07:32.427Z,16.08
2022-10-23T03:11:33.725Z,15.95
2022-10-23T03:15:33.361Z,14.07
2022-10-23T03:19:32.409Z,16.83
2022-10-23T03:23:36.197Z,12.73
2022-10-23T03:27:36.449Z,15.55
2022-10-23T03:31:35.744Z,18.73
2022-10-23T03:35:35.410Z,19.02
2022-10-23T03:39:37.319Z,13.32
2022-10-23T03:43:36.428Z,18.42
2022-10-23T03:47:40.634Z,20.75
2022-10-23T03:51:41.532Z,20.75
2022-10-23T03:55:43.235Z,25.35
2022-10-23T03:59:42.806Z,18.80
2022-10-23T04:03:42.496Z,25.20
2022-10-23T04:07:42.241Z,17.20
2022-10-23T04:11:44.682Z,25.13
2022-10-23T04:15:50.267Z,18.98
2022-10-23T04:19:50.303Z,16.15
2022-10-23T04:23:49.664Z,21.17
2022-10-23T04:27:51.689Z,17.83
2022-10-23T04:31:51.667Z,16.88
2022-10-23T04:35:51.095Z,23.58
2022-10-23T04:39:50.714Z,20.13
2022-10-23T04:43:52.623Z,37.63
2022-10-23T04:47:53.090Z,34.70
2022-10-23T04:51:52.830Z,24.15
2022-10-23T04:55:57.366Z,22.48
2022-10-23T04:59:59.746Z,25.77
2022-10-23T05:03:59.063Z,18.35
2022-10-23T05:07:58.675Z,14.85
2022-10-23T05:11:59.753Z,26.88
2022-10-23T05:16:01.935Z,26.40
2022-10-23T05:20:04.748Z,20.60
2022-10-23T05:24:04.308Z,21.55
2022-10-23T05:28:03.448Z,16.42
2022-10-23T05:32:08.942Z,14.18
2022-10-23T05:36:10.856Z,19.73
2022-10-23T05:40:12.523Z,15.52
2022-10-23T05:44:12.650Z,19.10
2022-10-23T05:48:30.118Z,14.82
2022-10-23T05:52:33.973Z,21.23
2022-10-23T05:56:37.145Z,15.02
2022-10-23T06:00:37.186Z,18.48
2022-10-23T06:04:43.979Z,16.98
2022-10-23T06:08:48.926Z,17.48
2022-10-23T06:12:49.881Z,18.40
2022-10-23T06:16:49.783Z,12.40
2022-10-23T06:20:52.303Z,17.92
2022-10-23T06:24:52.957Z,19.27
2022-10-23T06:28:53.236Z,17.65
2022-10-23T10:52:52.845Z,9.07
2022-10-23T10:56:54.817Z,6.00
2022-10-23T11:01:00.846Z,2.03
2022-10-23T11:05:27.162Z,4.50
2022-10-23T11:09:56.958Z,5.00
2022-10-23T11:14:20.853Z,5.25
2022-10-23T11:18:30.907Z,2.47
2022-10-23T11:22:43.471Z,1.70
2022-10-23T11:27:12.341Z,2.42
2022-10-23T11:31:34.849Z,2.00
2022-10-23T11:35:51.198Z,1.52
2022-10-23T11:40:24.201Z,1.65
2022-10-23T11:44:57.593Z,2.25
2022-10-23T11:49:18.342Z,2.30
2022-10-23T11:53:44.972Z,1.40
2022-10-23T11:57:46.432Z,1.25
2022-10-23T12:01:52.215Z,1.95
2022-10-23T12:06:02.156Z,4.75
2022-10-23T12:10:11.541Z,7.40
2022-10-23T12:14:32.583Z,1.02
2022-10-23T12:18:36.434Z,4.35
2022-10-23T12:22:50.056Z,1.90
2022-10-23T12:27:01.172Z,7.15
2022-10-23T12:31:13.603Z,2.92
2022-10-23T12:35:36.357Z,1.52
2022-10-23T12:39:45.966Z,4.13
2022-10-23T12:43:57.419Z,4.00
2022-10-23T12:47:57.521Z,1.17
2022-10-23T12:52:01.760Z,3.28
2022-10-23T12:56:04.538Z,2.60
2022-10-23T13:00:30.887Z,1.60
2022-10-23T13:04:33.222Z,3.90
2022-10-23T13:08:51.967Z,4.47
2022-10-23T13:12:57.182Z,3.42
2022-10-23T13:17:03.123Z,5.05
2022-10-23T13:21:04.003Z,2.42
2022-10-23T13:25:25.879Z,3.15
2022-10-23T13:29:29.525Z,5.10
2022-10-23T13:33:35.413Z,2.05
2022-10-23T13:37:35.587Z,3.92
2022-10-23T13:41:46.137Z,3.53
2022-10-23T13:45:49.547Z,2.97
2022-10-23T13:49:50.806Z,3.20
2022-10-23T13:53:51.442Z,3.15
2022-10-23T13:57:53.597Z,2.65
2022-10-23T14:01:57.070Z,3.67
2022-10-23T14:05:58.273Z,5.18
2022-10-23T14:10:00.489Z,6.50
2022-10-23T14:14:03.048Z,2.65
2022-10-23T14:18:08.250Z,6.30
2022-10-23T14:22:08.494Z,7.30
2022-10-23T14:26:10.594Z,5.32
2022-10-23T14:30:13.991Z,2.28
2022-10-23T14:34:15.947Z,2.70
2022-10-23T14:38:20.288Z,2.85
2022-10-23T14:42:20.820Z,2.35
2022-10-23T14:46:25.775Z,4.82
2022-10-23T14:50:26.417Z,5.93
2022-10-23T14:54:26.636Z,22.27
2022-10-23T14:58:28.208Z,16.08
2022-10-23T15:02:33.081Z,8.50
2022-10-23T15:06:36.277Z,10.77
2022-10-23T15:10:36.201Z,8.65
2022-10-23T15:14:40.125Z,8.40
2022-10-23T15:18:46.375Z,7.00
2022-10-23T15:22:47.036Z,9.27
2022-10-23T15:26:47.370Z,5.85
2022-10-23T15:30:47.673Z,6.93
2022-10-23T15:34:51.872Z,4.60
2022-10-23T15:38:52.754Z,6.18
2022-10-23T15:42:52.804Z,7.82
2022-10-23T15:46:52.850Z,3.60
2022-10-23T15:50:55.231Z,7.22
2022-10-23T15:54:55.529Z,5.38
2022-10-23T15:58:59.100Z,5.30
2022-10-23T16:03:04.100Z,4.68
2022-10-23T16:07:07.225Z,5.88
2022-10-23T16:11:14.627Z,3.42
2022-10-23T16:15:14.969Z,4.85
2022-10-23T16:19:15.381Z,9.55
2022-10-23T16:23:19.360Z,7.13
2022-10-23T16:27:21.361Z,7.30
2022-10-23T16:31:23.121Z,14.65
2022-10-23T16:35:25.395Z,8.60
2022-10-23T16:39:30.414Z,7.88
2022-10-23T16:43:50.339Z,11.15
2022-10-23T16:47:51.738Z,9.60
2022-10-23T16:51:51.454Z,11.73
2022-10-23T16:55:53.560Z,9.88
2022-10-23T16:59:53.423Z,5.65
2022-10-23T17:03:55.601Z,6.25
2022-10-23T17:07:55.874Z,11.88
2022-10-23T17:11:58.221Z,11.32
2022-10-23T17:16:06.368Z,9.93
2022-10-23T17:20:07.531Z,7.20
2022-10-23T17:24:08.276Z,12.38
2022-10-23T17:28:12.980Z,9.70
2022-10-23T17:32:12.701Z,5.35
2022-10-23T17:36:14.921Z,6.35
2022-10-23T17:40:15.001Z,8.57
2022-10-23T17:44:17.323Z,9.60
2022-10-23T17:48:17.185Z,6.35
2022-10-23T17:52:17.215Z,3.65
2022-10-23T17:56:28.218Z,7.10
2022-10-23T18:00:36.161Z,8.13
2022-10-23T18:04:37.654Z,3.30
2022-10-23T18:13:34.519Z,4.47
2022-10-23T18:17:38.121Z,3.80
2022-10-23T18:21:39.949Z,7.93
2022-10-23T18:25:45.648Z,6.10
2022-10-23T18:29:45.337Z,7.20
2022-10-23T18:33:47.980Z,10.32
2022-10-23T18:37:48.190Z,8.32
2022-10-23T18:41:48.330Z,5.40
2022-10-23T18:45:48.431Z,12.68
2022-10-23T18:49:50.711Z,10.57
2022-10-23T18:53:51.131Z,5.57
2022-10-23T18:57:51.350Z,3.78
2022-10-23T19:01:52.595Z,9.55
2022-10-23T19:05:55.192Z,7.13
2022-10-23T19:09:55.544Z,7.57
2022-10-23T19:13:55.627Z,10.35
2022-10-23T19:18:05.246Z,8.50
2022-10-23T19:22:08.200Z,39.63
2022-10-23T19:26:10.066Z,3.88
2022-10-23T19:30:13.363Z,5.00
2022-10-23T19:34:13.069Z,10.23
2022-10-23T19:38:15.861Z,9.90
2022-10-23T19:42:18.799Z,7.00
2022-10-23T19:46:18.882Z,8.88
2022-10-23T19:50:19.862Z,7.90
2022-10-23T19:54:22.675Z,8.60
2022-10-23T19:58:23.208Z,9.02
2022-10-23T20:02:23.615Z,9.07
2022-10-23T20:06:25.875Z,8.68
2022-10-23T20:10:28.362Z,14.60
2022-10-23T20:14:28.805Z,9.85
2022-10-23T20:18:29.063Z,9.20
2022-10-23T20:22:29.792Z,10.85
2022-10-23T20:26:32.065Z,6.22
2022-10-23T20:30:32.480Z,6.82
2022-10-23T20:34:31.905Z,10.23
2022-10-23T20:38:31.942Z,12.02
2022-10-23T20:42:34.197Z,7.82
2022-10-23T20:46:34.552Z,7.13
2022-10-23T20:50:36.521Z,17.05
2022-10-23T20:54:37.888Z,9.95
2022-10-23T20:58:40.143Z,8.02
2022-10-23T21:02:40.448Z,5.68
2022-10-23T21:06:51.820Z,6.20
2022-10-23T21:11:00.727Z,7.22
2022-10-23T21:15:02.603Z,10.02
2022-10-23T21:19:04.172Z,7.95
2022-10-23T21:23:04.295Z,5.55
2022-10-23T21:27:04.414Z,4.78
2022-10-23T21:31:07.954Z,5.68
2022-10-23T21:35:08.989Z,4.97
2022-10-23T21:39:09.027Z,5.75
2022-10-23T21:43:10.790Z,6.82
2022-10-23T21:47:13.483Z,9.30
2022-10-23T21:51:19.426Z,5.55
2022-10-23T21:55:19.507Z,9.52
2022-10-23T21:59:21.236Z,7.05
2022-10-23T22:03:23.617Z,6.50
2022-10-23T22:07:26.737Z,4.38
2022-10-23T22:11:30.536Z,4.82
2022-10-23T22:15:30.235Z,9.35
2022-10-23T22:19:32.547Z,4.93
2022-10-23T22:23:32.754Z,8.80
2022-10-23T22:27:32.885Z,8.73
2022-10-23T22:31:34.580Z,7.38
2022-10-23T22:35:36.231Z,7.60
2022-10-23T22:39:36.478Z,5.85
2022-10-23T22:43:37.204Z,7.65
2022-10-23T22:47:37.552Z,5.07
2022-10-23T22:51:40.742Z,5.47
2022-10-23T22:55:43.835Z,5.43
2022-10-23T22:59:44.086Z,4.25
2022-10-23T23:03:44.607Z,5.25
2022-10-23T23:07:46.837Z,6.60
2022-10-23T23:11:51.506Z,9.95
2022-10-23T23:15:52.549Z,7.05
2022-10-23T23:19:52.873Z,7.47
2022-10-23T23:23:55.398Z,9.48
2022-10-23T23:27:55.739Z,8.27
2022-10-23T23:31:55.770Z,8.15
2022-10-23T23:39:57.349Z,7.07
2022-10-23T23:43:59.228Z,7.85
2022-10-23T23:48:00.483Z,6.10
2022-10-23T23:52:00.879Z,6.35
2022-10-23T23:56:03.490Z,7.97
